Terminal Aerodrome Forecast
Issued by NWS

Home | Current Version | Previous Version | Text Only | Print | Product List | Glossary On
Versions: 1 2 3 4 5 6 7 8 9 10 11 12
000
FTUS45 KRIW 282300
TAFCOD
TAF
KCOD 282334Z 2900/2924 36008KT P6SM VCSH SCT014 OVC025
     FM290100 03016KT 4SM -SN BR SCT015 OVC025
     FM290400 02016G24KT 2SM -SN BLSN OVC015
     FM291700 36009KT 5SM -SN BR SCT015 BKN040
      AMD LTD TO CLD VIS AND WIND=

USA.gov is the U.S. government's official web portal to all federal, state and local government web resources and services.